Current Weather

Chicago O'Hare International

Chicago, Illinois (KORD)

Report from: Saturday, July 13, 2024 7:51 PM CDT
Current time: Saturday, July 13, 2024 8:08 PM CDT

Nearby weather – Weather history – Daily summaries
Weather forecast

Temperature26.7°C (80.1°F)
Heat index28.3°C (83.0°F)
Dew point20.0°C (68.0°F)
Winds 7 kts (3.6 m/s, 8.1 mph) South (170°)
Visibility10 mi. (16.1 km)
Clouds Few clouds 6,000 ft. (1,829 m)
Few clouds 10,000 ft. (3,048 m)
Scattered clouds 16,000 ft. (4,877 m)
Scattered clouds 25,000 ft. (7,620 m)
Altimeter30.03 in.Hg (1017 mB)
Relative humidity67 %
Density altitude1,558 ft. (475 m)
Sea-level pressure101.7 kPa (1017 mB, 30.02 in.Hg)
Remarks Automated weather observing station with precipitation discriminator
Flight conditions Visual Meteorological Conditions
Raw dataKORD 140051Z 17007KT 10SM FEW060 FEW100 SCT160 SCT250 27/20 A3003 RMK AO2 SLP165 T02670200
An error has occurred. This application may no longer respond until reloaded. Reload 🗙